sensor_id;sensor_type;location;lat;lon;timestamp;temperature;humidity
52397;DHT22;38322;53.108;6.308;2023-04-25T05:02:45;4.20;99.90
52397;DHT22;38322;53.108;6.308;2023-04-25T05:05:11;4.30;99.90
52397;DHT22;38322;53.108;6.308;2023-04-25T05:07:37;4.20;99.90
52397;DHT22;38322;53.108;6.308;2023-04-25T05:10:03;4.30;99.90
52397;DHT22;38322;53.108;6.308;2023-04-25T05:12:29;4.40;99.90
52397;DHT22;38322;53.108;6.308;2023-04-25T05:14:56;4.40;99.90
52397;DHT22;38322;53.108;6.308;2023-04-25T05:17:21;4.50;99.90
52397;DHT22;38322;53.108;6.308;2023-04-25T05:19:47;4.60;99.90
52397;DHT22;38322;53.108;6.308;2023-04-25T05:22:13;4.70;99.90
52397;DHT22;38322;53.108;6.308;2023-04-25T05:24:39;4.80;99.90
52397;DHT22;38322;53.108;6.308;2023-04-25T05:27:05;4.90;99.90
52397;DHT22;38322;53.108;6.308;2023-04-25T05:29:31;5.00;99.90
52397;DHT22;38322;53.108;6.308;2023-04-25T05:31:56;5.20;99.90
52397;DHT22;38322;53.108;6.308;2023-04-25T05:34:22;5.50;99.90
52397;DHT22;38322;53.108;6.308;2023-04-25T05:36:48;5.50;99.90
52397;DHT22;38322;53.108;6.308;2023-04-25T05:39:15;5.90;99.90
52397;DHT22;38322;53.108;6.308;2023-04-25T05:41:42;5.90;99.90
52397;DHT22;38322;53.108;6.308;2023-04-25T05:44:08;6.00;99.90
52397;DHT22;38322;53.108;6.308;2023-04-25T05:46:34;6.10;99.90
52397;DHT22;38322;53.108;6.308;2023-04-25T05:49:00;6.20;99.90
52397;DHT22;38322;53.108;6.308;2023-04-25T05:51:25;6.30;99.90
52397;DHT22;38322;53.108;6.308;2023-04-25T05:53:51;6.40;99.90
52397;DHT22;38322;53.108;6.308;2023-04-25T05:56:17;6.50;99.90
52397;DHT22;38322;53.108;6.308;2023-04-25T05:58:43;6.50;99.90
52397;DHT22;38322;53.108;6.308;2023-04-25T06:01:09;6.60;99.90
52397;DHT22;38322;53.108;6.308;2023-04-25T06:03:35;6.70;99.90
52397;DHT22;38322;53.108;6.308;2023-04-25T06:06:03;7.00;99.90
52397;DHT22;38322;53.108;6.308;2023-04-25T06:08:29;7.00;99.90
52397;DHT22;38322;53.108;6.308;2023-04-25T06:10:55;7.10;99.90
52397;DHT22;38322;53.108;6.308;2023-04-25T06:13:21;7.00;99.90
52397;DHT22;38322;53.108;6.308;2023-04-25T06:15:47;6.80;99.90
52397;DHT22;38322;53.108;6.308;2023-04-25T06:18:12;6.60;99.90
52397;DHT22;38322;53.108;6.308;2023-04-25T06:20:38;6.50;99.90
52397;DHT22;38322;53.108;6.308;2023-04-25T06:23:04;6.40;99.90
52397;DHT22;38322;53.108;6.308;2023-04-25T06:25:30;6.40;99.90
52397;DHT22;38322;53.108;6.308;2023-04-25T06:27:56;6.40;99.90
52397;DHT22;38322;53.108;6.308;2023-04-25T06:30:21;6.50;99.90
52397;DHT22;38322;53.108;6.308;2023-04-25T06:32:51;6.50;99.90
52397;DHT22;38322;53.108;6.308;2023-04-25T06:35:18;6.50;99.90
52397;DHT22;38322;53.108;6.308;2023-04-25T06:37:44;6.60;99.90
52397;DHT22;38322;53.108;6.308;2023-04-25T06:40:10;6.60;99.90
52397;DHT22;38322;53.108;6.308;2023-04-25T06:42:36;6.70;99.90
52397;DHT22;38322;53.108;6.308;2023-04-25T06:45:03;6.90;99.90
52397;DHT22;38322;53.108;6.308;2023-04-25T06:47:28;7.00;99.90
52397;DHT22;38322;53.108;6.308;2023-04-25T06:49:55;7.10;99.90
52397;DHT22;38322;53.108;6.308;2023-04-25T06:52:21;7.10;99.90
52397;DHT22;38322;53.108;6.308;2023-04-25T06:54:47;7.10;99.90
52397;DHT22;38322;53.108;6.308;2023-04-25T06:57:13;7.00;99.90
52397;DHT22;38322;53.108;6.308;2023-04-25T06:59:38;7.00;99.90
52397;DHT22;38322;53.108;6.308;2023-04-25T07:02:05;7.00;99.90
52397;DHT22;38322;53.108;6.308;2023-04-25T07:04:31;7.00;99.90
52397;DHT22;38322;53.108;6.308;2023-04-25T07:06:57;7.00;99.90
52397;DHT22;38322;53.108;6.308;2023-04-25T07:09:23;7.00;99.90
52397;DHT22;38322;53.108;6.308;2023-04-25T07:11:49;7.00;99.90
52397;DHT22;38322;53.108;6.308;2023-04-25T07:14:15;7.00;99.90
52397;DHT22;38322;53.108;6.308;2023-04-25T07:16:41;7.10;99.90
52397;DHT22;38322;53.108;6.308;2023-04-25T07:19:07;7.40;99.90
52397;DHT22;38322;53.108;6.308;2023-04-25T07:21:33;7.60;99.90
52397;DHT22;38322;53.108;6.308;2023-04-25T07:23:59;7.80;99.90
52397;DHT22;38322;53.108;6.308;2023-04-25T07:26:25;7.80;99.90
52397;DHT22;38322;53.108;6.308;2023-04-25T07:28:51;7.90;99.90
52397;DHT22;38322;53.108;6.308;2023-04-25T07:31:17;7.80;99.90
52397;DHT22;38322;53.108;6.308;2023-04-25T07:33:44;7.90;99.90
52397;DHT22;38322;53.108;6.308;2023-04-25T07:36:11;7.80;99.90
52397;DHT22;38322;53.108;6.308;2023-04-25T07:38:38;7.80;99.90
52397;DHT22;38322;53.108;6.308;2023-04-25T07:41:04;7.70;99.90
52397;DHT22;38322;53.108;6.308;2023-04-25T07:43:30;7.70;99.90
52397;DHT22;38322;53.108;6.308;2023-04-25T07:45:56;7.70;99.90
52397;DHT22;38322;53.108;6.308;2023-04-25T07:48:22;7.70;99.90
52397;DHT22;38322;53.108;6.308;2023-04-25T07:50:48;7.70;99.90
52397;DHT22;38322;53.108;6.308;2023-04-25T07:53:14;7.70;99.90
52397;DHT22;38322;53.108;6.308;2023-04-25T07:55:40;7.70;99.90
52397;DHT22;38322;53.108;6.308;2023-04-25T07:58:07;7.70;99.90
52397;DHT22;38322;53.108;6.308;2023-04-25T08:00:33;7.70;99.90
52397;DHT22;38322;53.108;6.308;2023-04-25T08:02:58;7.80;99.90
52397;DHT22;38322;53.108;6.308;2023-04-25T08:05:24;7.90;99.90
52397;DHT22;38322;53.108;6.308;2023-04-25T08:07:50;7.90;99.90
52397;DHT22;38322;53.108;6.308;2023-04-25T08:10:16;7.80;99.90
52397;DHT22;38322;53.108;6.308;2023-04-25T08:12:42;7.90;99.90
52397;DHT22;38322;53.108;6.308;2023-04-25T08:15:08;8.00;99.90
52397;DHT22;38322;53.108;6.308;2023-04-25T08:17:34;8.20;99.90
52397;DHT22;38322;53.108;6.308;2023-04-25T08:20:01;8.40;99.90
52397;DHT22;38322;53.108;6.308;2023-04-25T08:22:28;8.50;99.90
52397;DHT22;38322;53.108;6.308;2023-04-25T08:24:54;8.40;99.90
52397;DHT22;38322;53.108;6.308;2023-04-25T08:27:19;8.40;99.90
52397;DHT22;38322;53.108;6.308;2023-04-25T08:29:46;8.40;99.90
52397;DHT22;38322;53.108;6.308;2023-04-25T08:32:12;8.20;99.90
52397;DHT22;38322;53.108;6.308;2023-04-25T08:34:38;7.80;99.90
52397;DHT22;38322;53.108;6.308;2023-04-25T08:37:08;7.40;99.90
52397;DHT22;38322;53.108;6.308;2023-04-25T08:39:35;7.10;99.90
52397;DHT22;38322;53.108;6.308;2023-04-25T08:42:05;6.60;99.90
52397;DHT22;38322;53.108;6.308;2023-04-25T08:44:34;6.30;99.90
52397;DHT22;38322;53.108;6.308;2023-04-25T08:47:03;6.10;99.90
52397;DHT22;38322;53.108;6.308;2023-04-25T08:49:32;6.10;99.90
52397;DHT22;38322;53.108;6.308;2023-04-25T08:52:00;6.00;99.90
52397;DHT22;38322;53.108;6.308;2023-04-25T08:54:27;6.10;99.90
52397;DHT22;38322;53.108;6.308;2023-04-25T08:56:55;6.20;99.90
52397;DHT22;38322;53.108;6.308;2023-04-25T08:59:23;6.30;99.90
52397;DHT22;38322;53.108;6.308;2023-04-25T09:01:50;6.30;99.90
52397;DHT22;38322;53.108;6.308;2023-04-25T09:04:17;6.50;99.90
52397;DHT22;38322;53.108;6.308;2023-04-25T09:06:44;6.70;99.90
52397;DHT22;38322;53.108;6.308;2023-04-25T09:09:10;7.00;99.90
52397;DHT22;38322;53.108;6.308;2023-04-25T09:11:36;7.20;99.90
52397;DHT22;38322;53.108;6.308;2023-04-25T09:14:13;7.50;99.90
52397;DHT22;38322;53.108;6.308;2023-04-25T09:19:27;8.00;99.90
52397;DHT22;38322;53.108;6.308;2023-04-25T09:21:55;8.30;99.90
52397;DHT22;38322;53.108;6.308;2023-04-25T09:26:59;8.80;99.90
52397;DHT22;38322;53.108;6.308;2023-04-25T09:29:32;8.70;99.90
52397;DHT22;38322;53.108;6.308;2023-04-25T09:32:19;8.50;99.90
52397;DHT22;38322;53.108;6.308;2023-04-25T09:34:49;7.90;99.90
52397;DHT22;38322;53.108;6.308;2023-04-25T09:37:18;7.40;99.90
52397;DHT22;38322;53.108;6.308;2023-04-25T09:39:46;7.10;99.90
52397;DHT22;38322;53.108;6.308;2023-04-25T09:42:14;7.00;99.90
52397;DHT22;38322;53.108;6.308;2023-04-25T09:45:00;7.00;99.90
52397;DHT22;38322;53.108;6.308;2023-04-25T09:47:27;7.20;99.90
52397;DHT22;38322;53.108;6.308;2023-04-25T09:49:54;7.50;99.90
52397;DHT22;38322;53.108;6.308;2023-04-25T09:52:22;7.60;99.90
52397;DHT22;38322;53.108;6.308;2023-04-25T09:54:50;7.60;99.90
52397;DHT22;38322;53.108;6.308;2023-04-25T09:57:19;7.60;99.90
52397;DHT22;38322;53.108;6.308;2023-04-25T09:59:52;7.80;99.90
52397;DHT22;38322;53.108;6.308;2023-04-25T10:02:20;8.10;99.90
52397;DHT22;38322;53.108;6.308;2023-04-25T10:04:49;8.40;99.90
52397;DHT22;38322;53.108;6.308;2023-04-25T10:07:18;8.60;99.90
52397;DHT22;38322;53.108;6.308;2023-04-25T10:09:48;8.70;99.90
52397;DHT22;38322;53.108;6.308;2023-04-25T10:12:16;8.70;99.90
52397;DHT22;38322;53.108;6.308;2023-04-25T10:14:42;8.60;99.90
52397;DHT22;38322;53.108;6.308;2023-04-25T10:17:10;8.70;99.90
52397;DHT22;38322;53.108;6.308;2023-04-25T10:19:37;9.00;99.90
52397;DHT22;38322;53.108;6.308;2023-04-25T10:22:08;9.20;99.90
52397;DHT22;38322;53.108;6.308;2023-04-25T10:24:35;9.20;99.90
52397;DHT22;38322;53.108;6.308;2023-04-25T10:27:02;9.20;99.90
52397;DHT22;38322;53.108;6.308;2023-04-25T10:29:28;8.90;99.90
52397;DHT22;38322;53.108;6.308;2023-04-25T10:34:24;8.60;99.90
52397;DHT22;38322;53.108;6.308;2023-04-25T10:36:52;8.70;99.90
52397;DHT22;38322;53.108;6.308;2023-04-25T10:39:24;9.10;99.90
52397;DHT22;38322;53.108;6.308;2023-04-25T10:41:56;9.40;99.90
52397;DHT22;38322;53.108;6.308;2023-04-25T10:44:22;9.50;99.90
52397;DHT22;38322;53.108;6.308;2023-04-25T10:46:48;9.70;99.90
52397;DHT22;38322;53.108;6.308;2023-04-25T10:49:45;9.50;99.90
52397;DHT22;38322;53.108;6.308;2023-04-25T10:52:24;9.10;99.90
52397;DHT22;38322;53.108;6.308;2023-04-25T10:54:54;8.80;99.90
52397;DHT22;38322;53.108;6.308;2023-04-25T10:57:39;8.40;99.90
52397;DHT22;38322;53.108;6.308;2023-04-25T11:02:53;8.00;99.90
52397;DHT22;38322;53.108;6.308;2023-04-25T11:05:28;8.10;99.90
52397;DHT22;38322;53.108;6.308;2023-04-25T11:07:55;8.30;99.90
52397;DHT22;38322;53.108;6.308;2023-04-25T11:10:31;8.40;99.90
52397;DHT22;38322;53.108;6.308;2023-04-25T11:12:57;8.50;99.90
52397;DHT22;38322;53.108;6.308;2023-04-25T11:15:24;8.70;99.90
52397;DHT22;38322;53.108;6.308;2023-04-25T11:17:52;8.80;99.90
52397;DHT22;38322;53.108;6.308;2023-04-25T11:20:17;8.80;99.90
52397;DHT22;38322;53.108;6.308;2023-04-25T11:22:45;9.00;99.90
52397;DHT22;38322;53.108;6.308;2023-04-25T11:25:12;9.10;99.90
52397;DHT22;38322;53.108;6.308;2023-04-25T11:27:55;9.20;99.90
52397;DHT22;38322;53.108;6.308;2023-04-25T11:30:24;9.30;99.90
52397;DHT22;38322;53.108;6.308;2023-04-25T11:32:50;9.10;99.90
52397;DHT22;38322;53.108;6.308;2023-04-25T11:35:18;8.90;99.90
52397;DHT22;38322;53.108;6.308;2023-04-25T11:37:45;8.90;99.90
52397;DHT22;38322;53.108;6.308;2023-04-25T11:40:11;9.10;99.90
52397;DHT22;38322;53.108;6.308;2023-04-25T11:42:38;9.30;99.90
52397;DHT22;38322;53.108;6.308;2023-04-25T11:45:05;9.40;99.90
52397;DHT22;38322;53.108;6.308;2023-04-25T11:47:33;9.70;99.90
52397;DHT22;38322;53.108;6.308;2023-04-25T11:50:00;9.80;99.90
52397;DHT22;38322;53.108;6.308;2023-04-25T11:55:05;10.00;99.90
52397;DHT22;38322;53.108;6.308;2023-04-25T11:57:32;9.90;99.90
52397;DHT22;38322;53.108;6.308;2023-04-25T12:02:45;9.20;99.90
52397;DHT22;38322;53.108;6.308;2023-04-25T12:05:14;9.00;99.90
52397;DHT22;38322;53.108;6.308;2023-04-25T12:07:41;8.90;99.90
52397;DHT22;38322;53.108;6.308;2023-04-25T12:10:10;8.90;99.90
52397;DHT22;38322;53.108;6.308;2023-04-25T12:12:37;9.00;99.90
52397;DHT22;38322;53.108;6.308;2023-04-25T12:17:38;9.50;99.90
52397;DHT22;38322;53.108;6.308;2023-04-25T12:20:09;9.90;99.90
52397;DHT22;38322;53.108;6.308;2023-04-25T12:22:35;10.20;99.90
52397;DHT22;38322;53.108;6.308;2023-04-25T12:25:03;10.30;99.90
52397;DHT22;38322;53.108;6.308;2023-04-25T12:27:31;10.20;99.90
52397;DHT22;38322;53.108;6.308;2023-04-25T12:29:57;10.10;99.90
52397;DHT22;38322;53.108;6.308;2023-04-25T12:32:24;9.90;99.90
52397;DHT22;38322;53.108;6.308;2023-04-25T12:34:50;10.10;99.90
52397;DHT22;38322;53.108;6.308;2023-04-25T12:37:16;10.00;99.90
52397;DHT22;38322;53.108;6.308;2023-04-25T12:39:42;10.20;99.90
52397;DHT22;38322;53.108;6.308;2023-04-25T12:42:07;10.40;99.90
52397;DHT22;38322;53.108;6.308;2023-04-25T12:44:37;10.60;99.90
52397;DHT22;38322;53.108;6.308;2023-04-25T12:47:03;10.60;99.90
52397;DHT22;38322;53.108;6.308;2023-04-25T12:49:29;10.90;99.90
52397;DHT22;38322;53.108;6.308;2023-04-25T12:51:55;11.10;99.90
52397;DHT22;38322;53.108;6.308;2023-04-25T12:54:21;11.00;99.90
52397;DHT22;38322;53.108;6.308;2023-04-25T12:56:47;10.80;99.90
52397;DHT22;38322;53.108;6.308;2023-04-25T12:59:12;10.30;99.90
52397;DHT22;38322;53.108;6.308;2023-04-25T13:01:38;9.90;99.90
52397;DHT22;38322;53.108;6.308;2023-04-25T13:04:05;9.60;99.90
52397;DHT22;38322;53.108;6.308;2023-04-25T13:06:31;9.40;99.90
52397;DHT22;38322;53.108;6.308;2023-04-25T13:08:57;9.40;99.90
52397;DHT22;38322;53.108;6.308;2023-04-25T13:11:23;9.60;99.90
52397;DHT22;38322;53.108;6.308;2023-04-25T13:13:49;9.50;99.90
52397;DHT22;38322;53.108;6.308;2023-04-25T13:16:14;9.40;99.90
52397;DHT22;38322;53.108;6.308;2023-04-25T13:18:40;9.30;99.90
52397;DHT22;38322;53.108;6.308;2023-04-25T13:21:06;9.70;99.90
52397;DHT22;38322;53.108;6.308;2023-04-25T13:23:32;9.90;99.90
52397;DHT22;38322;53.108;6.308;2023-04-25T13:25:58;9.90;99.90
52397;DHT22;38322;53.108;6.308;2023-04-25T13:28:26;9.80;99.90
52397;DHT22;38322;53.108;6.308;2023-04-25T13:30:52;10.00;99.90
52397;DHT22;38322;53.108;6.308;2023-04-25T13:33:18;9.70;99.90
52397;DHT22;38322;53.108;6.308;2023-04-25T13:35:44;9.00;99.90
52397;DHT22;38322;53.108;6.308;2023-04-25T13:38:12;8.40;99.90
52397;DHT22;38322;53.108;6.308;2023-04-25T13:40:39;7.90;99.90
52397;DHT22;38322;53.108;6.308;2023-04-25T13:43:05;7.60;99.90
52397;DHT22;38322;53.108;6.308;2023-04-25T13:45:32;7.50;99.90
52397;DHT22;38322;53.108;6.308;2023-04-25T13:47:58;7.80;99.90
52397;DHT22;38322;53.108;6.308;2023-04-25T13:50:23;8.10;99.90
52397;DHT22;38322;53.108;6.308;2023-04-25T13:52:49;8.10;99.90
52397;DHT22;38322;53.108;6.308;2023-04-25T13:55:15;8.00;99.90
52397;DHT22;38322;53.108;6.308;2023-04-25T13:57:41;8.10;99.90
52397;DHT22;38322;53.108;6.308;2023-04-25T14:00:07;8.20;99.90
52397;DHT22;38322;53.108;6.308;2023-04-25T14:02:35;8.50;99.90
52397;DHT22;38322;53.108;6.308;2023-04-25T14:05:03;8.80;99.90
52397;DHT22;38322;53.108;6.308;2023-04-25T14:07:29;9.00;99.90
52397;DHT22;38322;53.108;6.308;2023-04-25T14:09:55;9.30;99.90
52397;DHT22;38322;53.108;6.308;2023-04-25T14:12:23;9.70;99.90
52397;DHT22;38322;53.108;6.308;2023-04-25T14:14:49;10.00;99.90
52397;DHT22;38322;53.108;6.308;2023-04-25T14:17:15;10.10;99.90
52397;DHT22;38322;53.108;6.308;2023-04-25T14:19:40;10.00;99.90
52397;DHT22;38322;53.108;6.308;2023-04-25T14:22:10;9.70;99.90
52397;DHT22;38322;53.108;6.308;2023-04-25T14:24:36;9.90;99.90
52397;DHT22;38322;53.108;6.308;2023-04-25T14:27:03;10.20;99.90
52397;DHT22;38322;53.108;6.308;2023-04-25T14:29:28;10.30;99.90
52397;DHT22;38322;53.108;6.308;2023-04-25T14:31:54;10.50;99.90
52397;DHT22;38322;53.108;6.308;2023-04-25T14:34:21;10.70;99.90
52397;DHT22;38322;53.108;6.308;2023-04-25T14:36:47;10.90;99.90
52397;DHT22;38322;53.108;6.308;2023-04-25T14:39:13;11.20;99.90
52397;DHT22;38322;53.108;6.308;2023-04-25T14:41:40;11.00;99.90
52397;DHT22;38322;53.108;6.308;2023-04-25T14:44:06;11.00;99.90
52397;DHT22;38322;53.108;6.308;2023-04-25T14:46:32;10.70;99.90
52397;DHT22;38322;53.108;6.308;2023-04-25T14:48:58;10.50;99.90
52397;DHT22;38322;53.108;6.308;2023-04-25T14:51:24;10.30;99.90
52397;DHT22;38322;53.108;6.308;2023-04-25T14:53:49;10.20;99.90
52397;DHT22;38322;53.108;6.308;2023-04-25T14:56:16;10.30;99.90
52397;DHT22;38322;53.108;6.308;2023-04-25T14:58:41;10.20;99.90
52397;DHT22;38322;53.108;6.308;2023-04-25T15:01:07;9.90;99.90
52397;DHT22;38322;53.108;6.308;2023-04-25T15:03:33;9.60;99.90
52397;DHT22;38322;53.108;6.308;2023-04-25T15:05:59;9.20;99.90
52397;DHT22;38322;53.108;6.308;2023-04-25T15:08:25;9.00;99.90
52397;DHT22;38322;53.108;6.308;2023-04-25T15:10:52;8.90;99.90
52397;DHT22;38322;53.108;6.308;2023-04-25T15:13:18;9.00;99.90
52397;DHT22;38322;53.108;6.308;2023-04-25T15:15:44;9.20;99.90
52397;DHT22;38322;53.108;6.308;2023-04-25T15:18:17;9.40;99.90
52397;DHT22;38322;53.108;6.308;2023-04-25T15:20:43;9.70;99.90
52397;DHT22;38322;53.108;6.308;2023-04-25T15:23:09;9.70;99.90
52397;DHT22;38322;53.108;6.308;2023-04-25T15:25:35;9.60;99.90
52397;DHT22;38322;53.108;6.308;2023-04-25T15:28:02;9.40;99.90
52397;DHT22;38322;53.108;6.308;2023-04-25T15:30:28;9.20;99.90
52397;DHT22;38322;53.108;6.308;2023-04-25T15:32:54;9.30;99.90
52397;DHT22;38322;53.108;6.308;2023-04-25T15:35:20;9.10;99.90
52397;DHT22;38322;53.108;6.308;2023-04-25T15:37:46;9.00;99.90
52397;DHT22;38322;53.108;6.308;2023-04-25T15:40:14;9.00;99.90
52397;DHT22;38322;53.108;6.308;2023-04-25T15:42:43;9.00;99.90
52397;DHT22;38322;53.108;6.308;2023-04-25T15:45:13;9.00;99.90
52397;DHT22;38322;53.108;6.308;2023-04-25T15:47:39;9.20;99.90
52397;DHT22;38322;53.108;6.308;2023-04-25T15:50:07;9.40;99.90
52397;DHT22;38322;53.108;6.308;2023-04-25T15:52:34;9.70;99.90
52397;DHT22;38322;53.108;6.308;2023-04-25T15:55:01;9.80;99.90
52397;DHT22;38322;53.108;6.308;2023-04-25T15:57:29;10.00;99.90
52397;DHT22;38322;53.108;6.308;2023-04-25T15:59:55;10.20;99.90
52397;DHT22;38322;53.108;6.308;2023-04-25T16:02:21;10.40;99.90
52397;DHT22;38322;53.108;6.308;2023-04-25T16:04:47;10.40;99.90
52397;DHT22;38322;53.108;6.308;2023-04-25T16:07:13;10.40;99.90
52397;DHT22;38322;53.108;6.308;2023-04-25T16:09:39;10.20;99.90
52397;DHT22;38322;53.108;6.308;2023-04-25T16:12:07;10.00;99.90
52397;DHT22;38322;53.108;6.308;2023-04-25T16:14:33;9.80;99.90
52397;DHT22;38322;53.108;6.308;2023-04-25T16:16:58;9.50;99.90
52397;DHT22;38322;53.108;6.308;2023-04-25T16:19:24;9.50;99.90
52397;DHT22;38322;53.108;6.308;2023-04-25T16:21:50;9.70;99.90
52397;DHT22;38322;53.108;6.308;2023-04-25T16:24:16;9.70;99.90
52397;DHT22;38322;53.108;6.308;2023-04-25T16:26:42;9.30;99.90
52397;DHT22;38322;53.108;6.308;2023-04-25T16:29:09;9.10;99.90
52397;DHT22;38322;53.108;6.308;2023-04-25T16:31:35;8.80;99.90
52397;DHT22;38322;53.108;6.308;2023-04-25T16:34:02;8.60;99.90
52397;DHT22;38322;53.108;6.308;2023-04-25T16:36:28;8.70;99.90
52397;DHT22;38322;53.108;6.308;2023-04-25T16:38:54;9.10;99.90
52397;DHT22;38322;53.108;6.308;2023-04-25T16:41:20;9.70;99.90
52397;DHT22;38322;53.108;6.308;2023-04-25T16:43:46;10.10;99.90
52397;DHT22;38322;53.108;6.308;2023-04-25T16:46:11;10.30;99.90
52397;DHT22;38322;53.108;6.308;2023-04-25T16:48:38;10.50;99.90
52397;DHT22;38322;53.108;6.308;2023-04-25T16:51:04;10.90;99.90
52397;DHT22;38322;53.108;6.308;2023-04-25T16:53:30;11.00;99.90
52397;DHT22;38322;53.108;6.308;2023-04-25T16:55:57;10.90;99.90
52397;DHT22;38322;53.108;6.308;2023-04-25T16:58:23;10.60;99.90
52397;DHT22;38322;53.108;6.308;2023-04-25T17:00:49;10.40;99.90
52397;DHT22;38322;53.108;6.308;2023-04-25T17:03:15;10.20;99.90
52397;DHT22;38322;53.108;6.308;2023-04-25T17:05:40;9.90;99.90
52397;DHT22;38322;53.108;6.308;2023-04-25T17:08:06;9.60;99.90
52397;DHT22;38322;53.108;6.308;2023-04-25T17:10:32;9.50;99.90
52397;DHT22;38322;53.108;6.308;2023-04-25T17:12:58;9.40;99.90
52397;DHT22;38322;53.108;6.308;2023-04-25T17:15:24;9.20;99.90
52397;DHT22;38322;53.108;6.308;2023-04-25T17:17:50;9.20;99.90
52397;DHT22;38322;53.108;6.308;2023-04-25T17:20:16;9.10;99.90
52397;DHT22;38322;53.108;6.308;2023-04-25T17:22:43;9.10;99.90
52397;DHT22;38322;53.108;6.308;2023-04-25T17:25:09;8.90;99.90
52397;DHT22;38322;53.108;6.308;2023-04-25T17:27:35;8.70;99.90
52397;DHT22;38322;53.108;6.308;2023-04-25T17:30:02;8.40;99.90
52397;DHT22;38322;53.108;6.308;2023-04-25T17:32:29;8.20;99.90
52397;DHT22;38322;53.108;6.308;2023-04-25T17:34:55;8.00;99.90
52397;DHT22;38322;53.108;6.308;2023-04-25T17:37:22;7.80;99.90
52397;DHT22;38322;53.108;6.308;2023-04-25T17:39:48;7.60;99.90
52397;DHT22;38322;53.108;6.308;2023-04-25T17:42:14;7.60;99.90
52397;DHT22;38322;53.108;6.308;2023-04-25T17:44:41;7.60;99.90
52397;DHT22;38322;53.108;6.308;2023-04-25T17:47:07;7.60;99.90
52397;DHT22;38322;53.108;6.308;2023-04-25T17:49:34;7.50;99.90
52397;DHT22;38322;53.108;6.308;2023-04-25T17:52:00;7.40;99.90
52397;DHT22;38322;53.108;6.308;2023-04-25T17:54:27;7.40;99.90
52397;DHT22;38322;53.108;6.308;2023-04-25T17:56:53;7.30;99.90
52397;DHT22;38322;53.108;6.308;2023-04-25T17:59:19;7.20;99.90
52397;DHT22;38322;53.108;6.308;2023-04-25T18:01:46;7.10;99.90
52397;DHT22;38322;53.108;6.308;2023-04-25T18:04:12;7.00;99.90
52397;DHT22;38322;53.108;6.308;2023-04-25T18:06:39;7.00;99.90
52397;DHT22;38322;53.108;6.308;2023-04-25T18:09:05;6.90;99.90
52397;DHT22;38322;53.108;6.308;2023-04-25T18:11:42;6.90;99.90
52397;DHT22;38322;53.108;6.308;2023-04-25T18:14:08;6.90;99.90
52397;DHT22;38322;53.108;6.308;2023-04-25T18:16:41;6.90;99.90
52397;DHT22;38322;53.108;6.308;2023-04-25T18:19:07;6.80;99.90
52397;DHT22;38322;53.108;6.308;2023-04-25T18:21:37;6.80;99.90
52397;DHT22;38322;53.108;6.308;2023-04-25T18:24:04;6.70;99.90
52397;DHT22;38322;53.108;6.308;2023-04-25T18:26:30;6.70;99.90
52397;DHT22;38322;53.108;6.308;2023-04-25T18:28:56;6.70;99.90
52397;DHT22;38322;53.108;6.308;2023-04-25T18:31:22;6.60;99.90
52397;DHT22;38322;53.108;6.308;2023-04-25T18:33:49;6.50;99.90
52397;DHT22;38322;53.108;6.308;2023-04-25T18:36:15;6.50;99.90
52397;DHT22;38322;53.108;6.308;2023-04-25T18:38:41;6.50;99.90
52397;DHT22;38322;53.108;6.308;2023-04-25T18:41:07;6.40;99.90
52397;DHT22;38322;53.108;6.308;2023-04-25T18:43:33;6.40;99.90
52397;DHT22;38322;53.108;6.308;2023-04-25T18:45:59;6.40;99.90
52397;DHT22;38322;53.108;6.308;2023-04-25T18:48:24;6.30;99.90
52397;DHT22;38322;53.108;6.308;2023-04-25T18:50:50;6.20;99.90
52397;DHT22;38322;53.108;6.308;2023-04-25T18:53:16;6.20;99.90
52397;DHT22;38322;53.108;6.308;2023-04-25T18:55:42;6.10;99.90
52397;DHT22;38322;53.108;6.308;2023-04-25T18:58:08;6.00;99.90
52397;DHT22;38322;53.108;6.308;2023-04-25T19:00:34;6.00;99.90
52397;DHT22;38322;53.108;6.308;2023-04-25T19:03:00;5.90;99.90
52397;DHT22;38322;53.108;6.308;2023-04-25T19:05:29;5.80;99.90
52397;DHT22;38322;53.108;6.308;2023-04-25T19:07:56;5.70;99.90
52397;DHT22;38322;53.108;6.308;2023-04-25T19:10:22;5.60;99.90
52397;DHT22;38322;53.108;6.308;2023-04-25T19:12:48;5.60;99.90
52397;DHT22;38322;53.108;6.308;2023-04-25T19:15:14;5.60;99.90
52397;DHT22;38322;53.108;6.308;2023-04-25T19:17:41;5.70;99.90
52397;DHT22;38322;53.108;6.308;2023-04-25T19:20:07;5.70;99.90
52397;DHT22;38322;53.108;6.308;2023-04-25T19:22:33;5.70;99.90
52397;DHT22;38322;53.108;6.308;2023-04-25T19:25:00;5.70;99.90
52397;DHT22;38322;53.108;6.308;2023-04-25T19:27:25;5.60;99.90
52397;DHT22;38322;53.108;6.308;2023-04-25T19:29:51;5.70;99.90
52397;DHT22;38322;53.108;6.308;2023-04-25T19:32:23;5.70;99.90
52397;DHT22;38322;53.108;6.308;2023-04-25T19:34:50;5.70;99.90
52397;DHT22;38322;53.108;6.308;2023-04-25T19:37:16;5.60;99.90
52397;DHT22;38322;53.108;6.308;2023-04-25T19:39:41;5.60;99.90
52397;DHT22;38322;53.108;6.308;2023-04-25T19:42:07;5.50;99.90
52397;DHT22;38322;53.108;6.308;2023-04-25T19:44:33;5.50;99.90
52397;DHT22;38322;53.108;6.308;2023-04-25T19:46:59;5.40;99.90
52397;DHT22;38322;53.108;6.308;2023-04-25T19:49:26;5.20;99.90
52397;DHT22;38322;53.108;6.308;2023-04-25T19:51:52;5.30;99.90
52397;DHT22;38322;53.108;6.308;2023-04-25T19:54:18;5.30;99.90
52397;DHT22;38322;53.108;6.308;2023-04-25T19:56:44;5.20;99.90
52397;DHT22;38322;53.108;6.308;2023-04-25T19:59:10;5.20;99.90
